createdAt,value
2023-02-11T00:00:16.159Z,35.63
2023-02-11T00:02:58.263Z,35.53
2023-02-11T00:05:40.475Z,41.25
2023-02-11T00:08:29.140Z,37.85
2023-02-11T00:11:11.430Z,35.28
2023-02-11T00:14:00.562Z,38.63
2023-02-11T00:16:42.537Z,38.25
2023-02-11T00:19:31.155Z,43.58
2023-02-11T00:22:20.176Z,37.63
2023-02-11T00:25:02.513Z,28.02
2023-02-11T00:27:52.221Z,34.95
2023-02-11T00:30:48.132Z,30.13
2023-02-11T00:33:37.188Z,35.60
2023-02-11T00:36:25.425Z,30.15
2023-02-11T00:39:16.143Z,33.75
2023-02-11T00:41:58.401Z,24.33
2023-02-11T00:44:47.207Z,21.23
2023-02-11T00:47:29.370Z,28.38
2023-02-11T00:50:18.190Z,23.65
2023-02-11T00:53:00.674Z,21.30
2023-02-11T00:55:49.350Z,28.45
2023-02-11T00:58:33.538Z,22.90
2023-02-11T01:01:22.197Z,26.05
2023-02-11T01:04:04.424Z,18.92
2023-02-11T01:06:53.193Z,22.42
2023-02-11T01:09:42.135Z,17.08
2023-02-11T01:12:33.980Z,17.70
2023-02-11T01:15:28.143Z,17.90
2023-02-11T01:18:17.166Z,16.10
2023-02-11T01:21:01.486Z,10.45
2023-02-11T01:23:50.158Z,18.58
2023-02-11T01:26:32.442Z,17.95
2023-02-11T01:29:21.109Z,12.32
2023-02-11T01:32:10.499Z,17.20
2023-02-11T01:34:53.258Z,13.98
2023-02-11T01:37:42.940Z,14.95
2023-02-11T01:40:27.154Z,15.15
2023-02-11T01:43:19.381Z,14.48
2023-02-11T01:46:11.243Z,14.27
2023-02-11T01:49:19.514Z,14.85
2023-02-11T01:52:09.258Z,11.38
2023-02-11T01:55:23.372Z,17.58
2023-02-11T01:58:09.118Z,14.25
2023-02-11T02:00:58.383Z,19.58
2023-02-11T02:03:44.175Z,25.83
2023-02-11T02:06:55.396Z,21.33
2023-02-11T02:09:42.217Z,16.75
2023-02-11T02:12:30.398Z,19.15
2023-02-11T02:15:34.133Z,20.88
2023-02-11T02:21:39.412Z,37.95
2023-02-11T02:24:41.447Z,23.50
2023-02-11T02:27:38.168Z,30.65
2023-02-11T02:30:33.191Z,24.52
2023-02-11T02:33:36.454Z,19.77
2023-02-11T02:36:46.266Z,23.35
2023-02-11T02:39:34.384Z,27.08
2023-02-11T02:42:24.211Z,24.05
2023-02-11T02:45:06.375Z,20.70
2023-02-11T02:47:55.113Z,18.70
2023-02-11T02:50:43.426Z,15.57
2023-02-11T02:54:03.171Z,25.45
2023-02-11T02:57:02.468Z,20.48
2023-02-11T03:00:28.155Z,27.75
2023-02-11T03:03:18.431Z,30.73
2023-02-11T03:06:30.118Z,34.65
2023-02-11T03:09:28.520Z,30.45
2023-02-11T03:12:18.179Z,36.15
2023-02-11T03:15:01.498Z,38.92
2023-02-11T03:17:54.139Z,39.63
2023-02-11T03:20:45.136Z,42.80
2023-02-11T03:23:48.160Z,42.22
2023-02-11T03:26:39.389Z,40.88
2023-02-11T03:29:45.139Z,39.75
2023-02-11T03:32:47.022Z,38.38
2023-02-11T03:35:48.464Z,37.95
2023-02-11T03:38:37.400Z,45.08
2023-02-11T03:41:31.127Z,44.83
2023-02-11T03:44:15.363Z,42.03
2023-02-11T03:47:04.065Z,42.45
2023-02-11T03:49:49.430Z,47.13
2023-02-11T03:52:39.103Z,46.10
2023-02-11T03:55:26.980Z,36.45
2023-02-11T03:58:16.080Z,41.28
2023-02-11T04:00:58.511Z,41.30
2023-02-11T04:03:47.379Z,40.47
2023-02-11T04:06:29.488Z,36.70
2023-02-11T04:09:18.125Z,41.08
2023-02-11T04:12:00.434Z,37.78
2023-02-11T04:14:49.160Z,38.90
2023-02-11T04:17:38.168Z,28.63
2023-02-11T04:20:27.136Z,31.70
2023-02-11T04:23:09.363Z,28.98
2023-02-11T04:25:59.078Z,24.80
2023-02-11T04:28:48.120Z,27.58
2023-02-11T04:31:44.159Z,23.70
2023-02-11T04:34:33.125Z,20.08
2023-02-11T04:37:15.478Z,25.38
2023-02-11T04:40:04.121Z,19.08
2023-02-11T04:42:46.398Z,24.75
2023-02-11T04:45:35.483Z,22.55
2023-02-11T04:48:17.444Z,17.35
2023-02-11T04:51:06.161Z,26.65
2023-02-11T04:53:49.488Z,23.50
2023-02-11T04:56:38.068Z,23.63
2023-02-11T04:59:20.445Z,28.75
2023-02-11T05:02:09.166Z,25.33
2023-02-11T05:04:51.475Z,29.15
2023-02-11T05:07:40.087Z,27.73
2023-02-11T05:10:22.401Z,25.02
2023-02-11T05:13:11.232Z,32.03
2023-02-11T05:15:53.548Z,27.70
2023-02-11T05:18:42.154Z,30.75
2023-02-11T05:21:27.478Z,24.33
2023-02-11T05:24:16.101Z,29.48
2023-02-11T05:27:05.137Z,25.60
2023-02-11T05:29:48.374Z,23.90
2023-02-11T05:32:37.223Z,42.83
2023-02-11T05:35:26.400Z,21.45
2023-02-11T05:38:08.085Z,28.33
2023-02-11T05:40:50.289Z,27.38
2023-02-11T05:43:39.136Z,21.00
2023-02-11T05:46:21.470Z,69.57
2023-02-11T05:49:10.058Z,29.42
2023-02-11T05:51:52.408Z,29.52
2023-02-11T05:54:41.501Z,25.23
2023-02-11T05:57:29.446Z,28.02
2023-02-11T06:00:13.119Z,26.25
2023-02-11T06:03:02.025Z,23.77
2023-02-11T06:05:51.351Z,27.48
2023-02-11T06:08:39.524Z,31.25
2023-02-11T06:11:24.203Z,21.70
2023-02-11T06:14:12.459Z,22.27
2023-02-11T06:16:55.106Z,19.90
2023-02-11T06:19:43.404Z,25.20
2023-02-11T06:22:26.104Z,30.65
2023-02-11T06:25:15.584Z,17.63
2023-02-11T06:27:58.181Z,15.23
2023-02-11T06:30:54.173Z,23.42
2023-02-11T06:33:43.398Z,21.50
2023-02-11T06:36:29.176Z,22.13
2023-02-11T06:39:20.841Z,19.63
2023-02-11T06:42:05.368Z,25.80
2023-02-11T06:44:56.558Z,21.48
2023-02-11T06:47:38.071Z,19.90
2023-02-11T06:50:27.522Z,30.23
2023-02-11T06:53:10.166Z,21.58
2023-02-11T06:55:58.449Z,19.58
2023-02-11T06:58:41.489Z,19.33
2023-02-11T07:01:31.522Z,21.40
2023-02-11T07:04:14.167Z,20.05
2023-02-11T07:06:56.480Z,21.90
2023-02-11T07:09:45.232Z,22.83
2023-02-11T07:12:33.511Z,27.00
2023-02-11T07:15:16.137Z,24.08
2023-02-11T07:18:05.444Z,18.83
2023-02-11T07:20:48.115Z,23.52
2023-02-11T07:23:30.347Z,30.75
2023-02-11T07:26:24.184Z,11.88
2023-02-11T07:29:13.639Z,17.88
2023-02-11T07:32:02.136Z,16.80
2023-02-11T07:34:44.532Z,10.73
2023-02-11T07:37:33.163Z,13.82
2023-02-11T07:40:16.413Z,18.05
2023-02-11T07:43:05.163Z,16.60
2023-02-11T07:45:47.318Z,12.43
2023-02-11T07:48:36.177Z,9.68
2023-02-11T07:51:22.450Z,8.88
2023-02-11T07:54:11.117Z,14.07
2023-02-11T07:56:53.481Z,10.68
2023-02-11T07:59:42.109Z,13.20
2023-02-11T08:02:24.591Z,13.43
2023-02-11T08:05:13.164Z,14.40
2023-02-11T08:07:58.400Z,17.77
2023-02-11T08:10:47.172Z,11.13
2023-02-11T08:13:29.401Z,12.57
2023-02-11T08:16:18.173Z,14.75
2023-02-11T08:19:02.658Z,8.73
2023-02-11T08:21:52.178Z,11.98
2023-02-11T08:24:34.346Z,13.40
2023-02-11T08:27:23.151Z,15.02
2023-02-11T08:30:05.458Z,12.27
2023-02-11T08:32:54.129Z,13.30
2023-02-11T08:35:36.471Z,9.65
2023-02-11T08:38:25.123Z,15.25
2023-02-11T08:41:09.000Z,14.40
2023-02-11T08:43:58.260Z,18.88
2023-02-11T08:46:40.479Z,8.77
2023-02-11T08:49:30.118Z,10.65
2023-02-11T08:52:12.396Z,13.60
2023-02-11T08:55:01.173Z,12.77
2023-02-11T08:57:43.448Z,20.35
2023-02-11T09:00:32.154Z,11.68
2023-02-11T09:03:14.375Z,13.60
2023-02-11T09:06:03.127Z,6.30
2023-02-11T09:08:51.487Z,9.38
2023-02-11T09:11:43.131Z,13.18
2023-02-11T09:14:30.487Z,10.35
2023-02-11T09:17:19.140Z,7.38
2023-02-11T09:20:01.329Z,10.95
2023-02-11T09:22:50.159Z,9.57
2023-02-11T09:25:33.441Z,12.25
2023-02-11T09:28:22.486Z,12.35
2023-02-11T09:31:04.500Z,14.25
2023-02-11T09:33:58.107Z,11.20
2023-02-11T09:36:43.391Z,8.07
2023-02-11T09:39:34.232Z,14.13
2023-02-11T09:43:03.090Z,14.65
2023-02-11T09:46:04.154Z,14.73
2023-02-11T09:48:50.317Z,13.82
2023-02-11T09:51:50.150Z,5.88
2023-02-11T09:55:05.391Z,9.15
2023-02-11T09:57:53.361Z,6.93
2023-02-11T10:00:46.024Z,16.75
2023-02-11T10:04:07.341Z,14.27
2023-02-11T10:06:50.148Z,7.53
2023-02-11T10:09:41.431Z,15.23
2023-02-11T10:12:59.220Z,7.15
2023-02-11T10:16:05.937Z,21.85
2023-02-11T10:19:17.154Z,13.15
2023-02-11T10:22:33.151Z,6.95
2023-02-11T10:25:35.446Z,17.25
2023-02-11T10:28:30.208Z,13.25
2023-02-11T10:31:19.727Z,6.05
2023-02-11T10:34:14.519Z,6.75
2023-02-11T10:36:56.381Z,10.40
2023-02-11T10:39:47.141Z,7.75
2023-02-11T10:42:29.405Z,6.63
2023-02-11T10:45:32.085Z,15.48
2023-02-11T10:48:35.819Z,6.65
2023-02-11T10:51:28.127Z,10.48
2023-02-11T10:54:20.257Z,14.43
2023-02-11T10:57:09.080Z,10.98
2023-02-11T10:59:51.500Z,9.07
2023-02-11T11:02:44.043Z,10.52
2023-02-11T11:05:31.510Z,8.75
2023-02-11T11:08:21.218Z,10.68
2023-02-11T11:11:11.384Z,7.95
2023-02-11T11:14:04.115Z,11.60
2023-02-11T11:16:46.318Z,19.93
2023-02-11T11:19:35.164Z,9.88
2023-02-11T11:22:30.457Z,11.52
2023-02-11T11:25:35.037Z,9.73
2023-02-11T11:28:31.414Z,7.90
2023-02-11T11:31:42.264Z,13.35
2023-02-11T11:34:40.825Z,8.45
2023-02-11T11:37:36.417Z,8.68
2023-02-11T11:40:21.872Z,10.40
2023-02-11T11:43:23.213Z,10.50
2023-02-11T11:46:08.820Z,8.52
2023-02-11T11:49:00.120Z,5.28
2023-02-11T11:51:44.500Z,16.13
2023-02-11T11:54:36.113Z,8.85
2023-02-11T11:57:26.420Z,8.85
2023-02-11T12:00:43.119Z,10.57
2023-02-11T12:03:43.447Z,13.73
2023-02-11T12:06:59.111Z,10.35
2023-02-11T12:09:44.313Z,11.48
2023-02-11T12:12:40.082Z,8.93
2023-02-11T12:15:44.432Z,15.27
2023-02-11T12:18:51.084Z,13.50
2023-02-11T12:21:39.582Z,12.52
2023-02-11T12:24:37.009Z,16.17
2023-02-11T12:27:52.997Z,16.83
2023-02-11T12:31:00.089Z,10.57
2023-02-11T12:34:32.031Z,19.08
2023-02-11T12:37:22.988Z,7.82
2023-02-11T12:40:29.047Z,20.20
2023-02-11T12:43:35.391Z,20.73
2023-02-11T12:46:47.059Z,13.73
2023-02-11T12:49:42.360Z,15.70
2023-02-11T12:52:53.432Z,18.67
2023-02-11T12:55:51.403Z,25.88
2023-02-11T12:58:44.899Z,19.27
2023-02-11T13:01:39.493Z,10.93
2023-02-11T13:04:29.108Z,22.55
2023-02-11T13:07:28.100Z,22.05
2023-02-11T13:10:31.007Z,23.83
2023-02-11T13:13:32.133Z,24.45
2023-02-11T13:16:35.635Z,19.55
2023-02-11T13:19:44.100Z,22.35
2023-02-11T13:22:58.251Z,15.63
2023-02-11T13:26:03.117Z,24.40
2023-02-11T13:29:10.073Z,21.30
2023-02-11T13:32:24.926Z,15.38
2023-02-11T13:35:44.006Z,29.20
2023-02-11T13:38:33.113Z,25.40
2023-02-11T13:41:24.562Z,29.13
2023-02-11T13:44:17.172Z,17.23
2023-02-11T13:47:12.603Z,15.23
2023-02-11T13:50:01.128Z,25.42
2023-02-11T13:52:50.418Z,34.80
2023-02-11T13:55:35.383Z,38.88
2023-02-11T13:58:27.553Z,30.13
2023-02-11T14:01:10.118Z,35.30
2023-02-11T14:04:39.098Z,34.33
2023-02-11T14:08:02.079Z,30.05
2023-02-11T14:10:51.551Z,32.20
2023-02-11T14:13:42.112Z,33.17
2023-02-11T14:16:38.362Z,37.05
2023-02-11T14:19:39.063Z,32.55
2023-02-11T14:22:48.511Z,34.65
2023-02-11T14:25:35.184Z,40.00
2023-02-11T14:28:35.862Z,62.08
2023-02-11T14:31:29.256Z,46.45
2023-02-11T14:34:59.013Z,39.30
2023-02-11T14:38:06.482Z,37.45
2023-02-11T14:41:03.056Z,41.30
2023-02-11T14:43:49.712Z,50.03
2023-02-11T14:46:41.053Z,45.35
2023-02-11T14:49:34.337Z,62.63
2023-02-11T14:52:32.194Z,52.03
2023-02-11T14:55:39.052Z,41.13
2023-02-11T14:58:32.351Z,40.60
2023-02-11T15:01:39.528Z,43.72
2023-02-11T15:04:38.074Z,47.30
2023-02-11T15:07:27.484Z,49.00
2023-02-11T15:10:11.115Z,49.88
2023-02-11T15:13:00.458Z,50.30
2023-02-11T15:15:45.165Z,46.80
2023-02-11T15:18:41.690Z,54.33
2023-02-11T15:21:36.092Z,61.53
2023-02-11T15:24:42.084Z,56.88
2023-02-11T15:27:30.462Z,63.50
2023-02-11T15:30:29.167Z,54.13
2023-02-11T15:33:33.786Z,60.75
2023-02-11T15:36:20.140Z,59.00
2023-02-11T15:39:39.474Z,49.60
2023-02-11T15:42:52.781Z,47.10
2023-02-11T15:45:49.415Z,50.72
2023-02-11T15:48:46.169Z,49.58
2023-02-11T15:51:46.467Z,51.75
2023-02-11T15:54:32.076Z,60.05
2023-02-11T15:57:21.339Z,50.65
2023-02-11T16:00:04.096Z,62.80
2023-02-11T16:02:58.149Z,62.28
2023-02-11T16:05:46.334Z,61.42
2023-02-11T16:08:38.365Z,60.97
2023-02-11T16:11:42.301Z,67.38
2023-02-11T16:14:47.043Z,52.78
2023-02-11T16:17:37.521Z,64.25
2023-02-11T16:20:28.155Z,57.03
2023-02-11T16:23:12.468Z,54.10
2023-02-11T16:26:29.154Z,55.08
2023-02-11T16:29:23.496Z,61.20
2023-02-11T16:32:34.040Z,57.55
2023-02-11T16:35:22.318Z,64.97
2023-02-11T16:38:05.101Z,80.97
2023-02-11T16:40:54.449Z,57.40
2023-02-11T16:43:37.158Z,48.03
2023-02-11T16:46:28.485Z,55.35
2023-02-11T16:49:33.027Z,59.08
2023-02-11T16:52:24.382Z,61.60
2023-02-11T16:55:08.741Z,80.63
2023-02-11T16:57:59.505Z,82.75
2023-02-11T17:00:42.083Z,69.55
2023-02-11T17:03:38.649Z,60.83
2023-02-11T17:06:22.179Z,54.78
2023-02-11T17:09:10.440Z,77.05
2023-02-11T17:11:53.081Z,99.75
2023-02-11T17:14:42.518Z,62.47
2023-02-11T17:17:25.048Z,60.33
2023-02-11T17:20:14.744Z,69.65
2023-02-11T17:22:58.048Z,67.93
2023-02-11T17:25:47.339Z,59.47
2023-02-11T17:28:30.084Z,66.97
2023-02-11T17:31:19.479Z,64.13
2023-02-11T17:34:14.044Z,64.22
2023-02-11T17:37:08.679Z,63.90
2023-02-11T17:39:51.967Z,53.00
2023-02-11T17:42:40.773Z,62.28
2023-02-11T17:45:24.120Z,67.80
2023-02-11T17:48:13.005Z,66.80
2023-02-11T17:51:02.225Z,67.72
2023-02-11T17:53:51.432Z,67.30
2023-02-11T17:56:34.118Z,73.75
2023-02-11T17:59:22.403Z,57.45
2023-02-11T18:02:05.087Z,61.30
2023-02-11T18:04:56.542Z,67.75
2023-02-11T18:07:39.129Z,75.10
2023-02-11T18:10:21.361Z,75.00
2023-02-11T18:13:10.115Z,70.70
2023-02-11T18:15:58.364Z,70.10
2023-02-11T18:18:41.111Z,65.53
2023-02-11T18:21:30.259Z,81.80
2023-02-11T18:24:13.500Z,71.13
2023-02-11T18:27:01.473Z,63.87
2023-02-11T18:29:44.040Z,80.25
2023-02-11T18:32:39.917Z,76.33
2023-02-11T18:35:29.086Z,81.55
2023-02-11T18:38:11.272Z,81.05
2023-02-11T18:41:00.050Z,69.88
2023-02-11T18:43:44.060Z,75.15
2023-02-11T18:46:32.976Z,66.30
2023-02-11T18:49:15.618Z,81.53
2023-02-11T18:52:06.068Z,89.03
2023-02-11T18:54:48.516Z,97.57
2023-02-11T18:57:38.041Z,97.00
2023-02-11T19:00:21.412Z,85.85
2023-02-11T19:03:11.106Z,108.45
2023-02-11T19:05:56.329Z,99.93
2023-02-11T19:08:45.072Z,106.13
2023-02-11T19:11:46.003Z,110.03
2023-02-11T19:14:38.988Z,102.28
2023-02-11T19:17:21.356Z,102.32
2023-02-11T19:20:09.995Z,105.15
2023-02-11T19:22:52.405Z,107.32
2023-02-11T19:25:40.998Z,123.65
2023-02-11T19:28:23.404Z,102.00
2023-02-11T19:31:17.533Z,104.97
2023-02-11T19:36:49.016Z,112.22
2023-02-11T19:42:20.076Z,123.07
2023-02-11T19:45:11.021Z,110.28
2023-02-11T19:47:54.050Z,109.63
2023-02-11T19:50:43.437Z,134.25
2023-02-11T19:53:25.096Z,116.00
2023-02-11T19:56:15.459Z,100.72
2023-02-11T19:58:58.067Z,104.63
2023-02-11T20:01:40.323Z,121.15
2023-02-11T20:04:32.096Z,102.78
2023-02-11T20:07:20.282Z,106.03
2023-02-11T20:10:03.076Z,107.10
2023-02-11T20:12:51.338Z,107.20
2023-02-11T20:15:34.090Z,103.70
2023-02-11T20:18:22.322Z,103.72
2023-02-11T20:21:04.056Z,100.13
2023-02-11T20:23:54.340Z,102.80
2023-02-11T20:26:41.021Z,110.32
2023-02-11T20:29:32.212Z,112.22
2023-02-11T20:32:16.419Z,107.45
2023-02-11T20:35:04.304Z,108.65
2023-02-11T20:37:47.295Z,120.13
2023-02-11T20:40:35.326Z,124.38
2023-02-11T20:43:18.035Z,122.72
2023-02-11T20:46:16.102Z,150.52
2023-02-11T20:48:59.409Z,150.98
2023-02-11T20:51:48.003Z,158.70
2023-02-11T20:54:37.949Z,173.63
2023-02-11T20:57:27.054Z,162.30
2023-02-11T21:00:10.744Z,164.32
2023-02-11T21:03:03.034Z,160.82
2023-02-11T21:05:45.262Z,151.30
2023-02-11T21:08:34.088Z,152.07
2023-02-11T21:11:22.990Z,143.75
2023-02-11T21:14:12.017Z,156.27
2023-02-11T21:16:55.307Z,147.13
2023-02-11T21:19:44.092Z,150.10
2023-02-11T21:22:26.298Z,159.50
2023-02-11T21:25:16.064Z,158.10
2023-02-11T21:27:58.446Z,156.93
2023-02-11T21:30:48.028Z,163.20
2023-02-11T21:33:31.352Z,166.48
2023-02-11T21:36:19.958Z,170.23
2023-02-11T21:39:02.899Z,171.20
2023-02-11T21:41:51.995Z,162.45
2023-02-11T21:44:34.259Z,166.00
2023-02-11T21:47:23.004Z,154.27
2023-02-11T21:50:05.233Z,155.73
2023-02-11T21:52:54.099Z,164.15
2023-02-11T21:55:36.308Z,168.68
2023-02-11T21:58:24.957Z,166.25
2023-02-11T22:01:14.054Z,159.35
2023-02-11T22:03:56.326Z,151.05
2023-02-11T22:06:48.036Z,154.25
2023-02-11T22:09:37.121Z,163.88
2023-02-11T22:12:19.262Z,146.00
2023-02-11T22:15:07.999Z,155.40
2023-02-11T22:17:50.234Z,157.20
2023-02-11T22:20:39.077Z,149.20
2023-02-11T22:23:21.345Z,148.30
2023-02-11T22:26:15.981Z,160.60
2023-02-11T22:28:59.309Z,150.48
2023-02-11T22:31:48.035Z,165.07
2023-02-11T22:34:42.815Z,148.10
2023-02-11T22:37:31.984Z,158.57
2023-02-11T22:40:15.285Z,166.38
2023-02-11T22:43:04.057Z,161.77
2023-02-11T22:45:46.411Z,166.65
2023-02-11T22:48:34.938Z,166.98
2023-02-11T22:51:26.976Z,159.20
2023-02-11T22:54:19.917Z,149.43
2023-02-11T22:57:09.862Z,151.02
2023-02-11T22:59:58.931Z,157.07
2023-02-11T23:02:41.227Z,151.60
2023-02-11T23:05:31.993Z,153.05
2023-02-11T23:08:19.214Z,145.65
2023-02-11T23:11:19.908Z,145.13
2023-02-11T23:14:09.975Z,136.43
2023-02-11T23:16:59.182Z,144.32
2023-02-11T23:19:41.227Z,149.10
2023-02-11T23:22:29.978Z,146.20
2023-02-11T23:25:19.003Z,144.80
2023-02-11T23:28:07.962Z,142.63
2023-02-11T23:30:50.307Z,138.13
2023-02-11T23:33:38.972Z,137.43
2023-02-11T23:36:29.092Z,137.20
2023-02-11T23:39:21.299Z,130.18
2023-02-11T23:42:06.998Z,124.88
2023-02-11T23:44:55.876Z,120.28
2023-02-11T23:47:44.909Z,120.25
2023-02-11T23:50:33.912Z,112.38
2023-02-11T23:53:16.267Z,103.00
2023-02-11T23:56:05.004Z,100.40
2023-02-11T23:58:53.963Z,98.72
